sensor_id;sensor_type;location;lat;lon;timestamp;temperature;humidity
55331;DHT22;58851;42.984;20.336;2023-12-07T00:01:41;154.00;6502.40
55331;DHT22;58851;42.984;20.336;2023-12-07T00:04:06;153.90;6502.40
55331;DHT22;58851;42.984;20.336;2023-12-07T00:06:32;153.90;6502.40
55331;DHT22;58851;42.984;20.336;2023-12-07T00:08:58;153.90;6502.40
55331;DHT22;58851;42.984;20.336;2023-12-07T00:11:25;153.80;6502.40
55331;DHT22;58851;42.984;20.336;2023-12-07T00:13:51;153.70;6502.40
55331;DHT22;58851;42.984;20.336;2023-12-07T00:16:17;153.60;6502.40
55331;DHT22;58851;42.984;20.336;2023-12-07T00:18:43;153.70;6502.40
55331;DHT22;58851;42.984;20.336;2023-12-07T00:21:08;153.60;6502.40
55331;DHT22;58851;42.984;20.336;2023-12-07T00:23:34;153.70;6502.40
55331;DHT22;58851;42.984;20.336;2023-12-07T00:26:00;153.70;6502.40
55331;DHT22;58851;42.984;20.336;2023-12-07T00:28:25;153.70;6502.40
55331;DHT22;58851;42.984;20.336;2023-12-07T00:30:51;153.60;6502.40
55331;DHT22;58851;42.984;20.336;2023-12-07T00:33:17;153.70;6502.40
55331;DHT22;58851;42.984;20.336;2023-12-07T00:35:43;153.70;6502.40
55331;DHT22;58851;42.984;20.336;2023-12-07T00:38:08;153.60;6502.40
55331;DHT22;58851;42.984;20.336;2023-12-07T00:40:34;153.60;6502.40
55331;DHT22;58851;42.984;20.336;2023-12-07T00:43:02;153.60;6502.40
55331;DHT22;58851;42.984;20.336;2023-12-07T00:45:28;128.90;6502.40
55331;DHT22;58851;42.984;20.336;2023-12-07T00:47:54;128.90;6502.40
55331;DHT22;58851;42.984;20.336;2023-12-07T00:50:20;128.90;6502.40
55331;DHT22;58851;42.984;20.336;2023-12-07T00:52:45;128.90;6502.40
55331;DHT22;58851;42.984;20.336;2023-12-07T00:55:11;153.60;6502.40
55331;DHT22;58851;42.984;20.336;2023-12-07T00:57:36;153.60;6502.40
55331;DHT22;58851;42.984;20.336;2023-12-07T01:00:02;153.60;6502.40
55331;DHT22;58851;42.984;20.336;2023-12-07T01:02:29;153.70;6502.40
55331;DHT22;58851;42.984;20.336;2023-12-07T01:04:54;153.70;6502.40
55331;DHT22;58851;42.984;20.336;2023-12-07T01:07:20;153.60;6502.40
55331;DHT22;58851;42.984;20.336;2023-12-07T01:09:46;153.60;6502.40
55331;DHT22;58851;42.984;20.336;2023-12-07T01:12:12;153.60;6502.40
55331;DHT22;58851;42.984;20.336;2023-12-07T01:14:37;153.60;6502.40
55331;DHT22;58851;42.984;20.336;2023-12-07T01:17:03;153.60;6502.40
55331;DHT22;58851;42.984;20.336;2023-12-07T01:19:29;153.70;6502.40
55331;DHT22;58851;42.984;20.336;2023-12-07T01:21:54;153.70;6502.40
55331;DHT22;58851;42.984;20.336;2023-12-07T01:24:20;153.70;6502.40
55331;DHT22;58851;42.984;20.336;2023-12-07T01:26:46;153.70;6502.40
55331;DHT22;58851;42.984;20.336;2023-12-07T01:29:11;153.70;6502.40
55331;DHT22;58851;42.984;20.336;2023-12-07T01:31:39;153.80;6502.40
55331;DHT22;58851;42.984;20.336;2023-12-07T01:34:05;153.80;6502.40
55331;DHT22;58851;42.984;20.336;2023-12-07T01:36:30;153.70;6502.40
55331;DHT22;58851;42.984;20.336;2023-12-07T01:38:56;153.80;6502.40
55331;DHT22;58851;42.984;20.336;2023-12-07T01:41:21;153.80;6502.40
55331;DHT22;58851;42.984;20.336;2023-12-07T01:43:47;153.80;6502.40
55331;DHT22;58851;42.984;20.336;2023-12-07T01:46:13;153.80;6502.40
55331;DHT22;58851;42.984;20.336;2023-12-07T01:48:40;153.80;6502.40
55331;DHT22;58851;42.984;20.336;2023-12-07T01:51:06;153.80;6502.40
55331;DHT22;58851;42.984;20.336;2023-12-07T01:53:32;153.80;6502.40
55331;DHT22;58851;42.984;20.336;2023-12-07T01:55:58;153.80;6502.40
55331;DHT22;58851;42.984;20.336;2023-12-07T01:58:24;153.80;6502.40
55331;DHT22;58851;42.984;20.336;2023-12-07T02:00:50;153.80;6502.40
55331;DHT22;58851;42.984;20.336;2023-12-07T02:03:16;153.70;6502.40
55331;DHT22;58851;42.984;20.336;2023-12-07T02:05:42;153.70;6502.40
55331;DHT22;58851;42.984;20.336;2023-12-07T02:08:08;153.80;6502.40
55331;DHT22;58851;42.984;20.336;2023-12-07T02:10:34;153.80;6502.40
55331;DHT22;58851;42.984;20.336;2023-12-07T02:13:00;153.80;6502.40
55331;DHT22;58851;42.984;20.336;2023-12-07T02:15:25;153.80;6502.40
55331;DHT22;58851;42.984;20.336;2023-12-07T02:18:06;153.80;6502.40
55331;DHT22;58851;42.984;20.336;2023-12-07T02:20:49;153.80;6502.40
55331;DHT22;58851;42.984;20.336;2023-12-07T02:23:18;153.80;6502.40
55331;DHT22;58851;42.984;20.336;2023-12-07T02:28:45;128.90;6502.40
55331;DHT22;58851;42.984;20.336;2023-12-07T02:31:10;128.80;6502.40
55331;DHT22;58851;42.984;20.336;2023-12-07T02:33:36;128.80;563.20
55331;DHT22;58851;42.984;20.336;2023-12-07T02:36:02;128.70;6502.40
55331;DHT22;58851;42.984;20.336;2023-12-07T02:38:27;128.70;6502.40
55331;DHT22;58851;42.984;20.336;2023-12-07T02:40:54;128.60;6502.40
55331;DHT22;58851;42.984;20.336;2023-12-07T02:43:20;128.50;6502.40
55331;DHT22;58851;42.984;20.336;2023-12-07T02:45:47;128.50;6502.40
55331;DHT22;58851;42.984;20.336;2023-12-07T02:48:13;128.20;6502.40
55331;DHT22;58851;42.984;20.336;2023-12-07T02:50:38;128.20;6502.40
55331;DHT22;58851;42.984;20.336;2023-12-07T02:53:04;128.00;6502.40
55331;DHT22;58851;42.984;20.336;2023-12-07T02:55:30;128.00;6502.40
55331;DHT22;58851;42.984;20.336;2023-12-07T02:57:55;128.00;6502.40
55331;DHT22;58851;42.984;20.336;2023-12-07T03:00:21;103.30;6476.80
55331;DHT22;58851;42.984;20.336;2023-12-07T03:02:47;103.20;6476.80
55331;DHT22;58851;42.984;20.336;2023-12-07T03:05:13;103.20;6476.80
55331;DHT22;58851;42.984;20.336;2023-12-07T03:07:38;103.20;6476.80
55331;DHT22;58851;42.984;20.336;2023-12-07T03:10:04;103.20;6476.80
55331;DHT22;58851;42.984;20.336;2023-12-07T03:12:30;103.20;6476.80
55331;DHT22;58851;42.984;20.336;2023-12-07T03:14:56;103.20;6476.80
55331;DHT22;58851;42.984;20.336;2023-12-07T03:17:21;103.20;6476.80
55331;DHT22;58851;42.984;20.336;2023-12-07T03:19:47;103.10;6476.80
55331;DHT22;58851;42.984;20.336;2023-12-07T03:22:13;103.10;6476.80
55331;DHT22;58851;42.984;20.336;2023-12-07T03:24:39;103.20;6476.80
55331;DHT22;58851;42.984;20.336;2023-12-07T03:27:05;103.10;6476.80
55331;DHT22;58851;42.984;20.336;2023-12-07T03:29:31;103.20;6476.80
55331;DHT22;58851;42.984;20.336;2023-12-07T03:31:57;103.10;6476.80
55331;DHT22;58851;42.984;20.336;2023-12-07T03:34:23;103.10;6476.80
55331;DHT22;58851;42.984;20.336;2023-12-07T03:36:49;102.90;6476.80
55331;DHT22;58851;42.984;20.336;2023-12-07T03:39:15;102.90;6476.80
55331;DHT22;58851;42.984;20.336;2023-12-07T03:41:41;102.90;6476.80
55331;DHT22;58851;42.984;20.336;2023-12-07T03:44:07;102.90;6476.80
55331;DHT22;58851;42.984;20.336;2023-12-07T03:46:32;102.90;6476.80
55331;DHT22;58851;42.984;20.336;2023-12-07T03:48:58;102.80;6476.80
55331;DHT22;58851;42.984;20.336;2023-12-07T03:51:28;102.80;6476.80
55331;DHT22;58851;42.984;20.336;2023-12-07T03:53:54;102.80;6476.80
55331;DHT22;58851;42.984;20.336;2023-12-07T03:56:23;102.80;6476.80
55331;DHT22;58851;42.984;20.336;2023-12-07T03:58:49;102.80;6476.80
55331;DHT22;58851;42.984;20.336;2023-12-07T04:01:15;102.70;6476.80
55331;DHT22;58851;42.984;20.336;2023-12-07T04:03:40;102.60;6476.80
55331;DHT22;58851;42.984;20.336;2023-12-07T04:06:06;102.60;6476.80
55331;DHT22;58851;42.984;20.336;2023-12-07T04:08:32;102.70;6476.80
55331;DHT22;58851;42.984;20.336;2023-12-07T04:10:58;102.70;6476.80
55331;DHT22;58851;42.984;20.336;2023-12-07T04:13:24;102.80;6476.80
55331;DHT22;58851;42.984;20.336;2023-12-07T04:15:49;102.80;6476.80
55331;DHT22;58851;42.984;20.336;2023-12-07T04:18:15;102.90;6476.80
55331;DHT22;58851;42.984;20.336;2023-12-07T04:20:41;103.00;6476.80
55331;DHT22;58851;42.984;20.336;2023-12-07T04:23:06;103.00;6476.80
55331;DHT22;58851;42.984;20.336;2023-12-07T04:25:32;103.10;6476.80
55331;DHT22;58851;42.984;20.336;2023-12-07T04:27:58;103.10;537.60
55331;DHT22;58851;42.984;20.336;2023-12-07T04:30:24;103.10;332.80
55331;DHT22;58851;42.984;20.336;2023-12-07T04:32:49;103.10;460.80
55331;DHT22;58851;42.984;20.336;2023-12-07T04:35:15;103.10;6476.80
55331;DHT22;58851;42.984;20.336;2023-12-07T04:37:41;103.20;6476.80
55331;DHT22;58851;42.984;20.336;2023-12-07T04:40:06;103.20;6476.80
55331;DHT22;58851;42.984;20.336;2023-12-07T04:42:32;103.30;128.00
55331;DHT22;58851;42.984;20.336;2023-12-07T04:44:58;103.20;128.00
55331;DHT22;58851;42.984;20.336;2023-12-07T04:47:23;103.30;6476.80
55331;DHT22;58851;42.984;20.336;2023-12-07T04:49:49;103.30;6476.80
55331;DHT22;58851;42.984;20.336;2023-12-07T04:52:15;128.00;128.00
55331;DHT22;58851;42.984;20.336;2023-12-07T04:54:40;103.20;6476.80
55331;DHT22;58851;42.984;20.336;2023-12-07T04:57:07;103.10;307.20
55331;DHT22;58851;42.984;20.336;2023-12-07T04:59:32;103.10;6476.80
55331;DHT22;58851;42.984;20.336;2023-12-07T05:01:58;103.20;6476.80
55331;DHT22;58851;42.984;20.336;2023-12-07T05:04:23;103.20;6528.00
55331;DHT22;58851;42.984;20.336;2023-12-07T05:06:49;103.30;6476.80
55331;DHT22;58851;42.984;20.336;2023-12-07T05:09:15;103.20;6476.80
55331;DHT22;58851;42.984;20.336;2023-12-07T05:11:40;103.10;6476.80
55331;DHT22;58851;42.984;20.336;2023-12-07T05:14:06;103.20;6476.80
55331;DHT22;58851;42.984;20.336;2023-12-07T05:16:32;103.20;128.00
55331;DHT22;58851;42.984;20.336;2023-12-07T05:18:58;103.20;6476.80
55331;DHT22;58851;42.984;20.336;2023-12-07T05:21:24;103.20;6528.00
55331;DHT22;58851;42.984;20.336;2023-12-07T05:23:50;103.10;230.40
55331;DHT22;58851;42.984;20.336;2023-12-07T05:26:15;103.20;230.40
55331;DHT22;58851;42.984;20.336;2023-12-07T05:28:41;103.20;128.00
55331;DHT22;58851;42.984;20.336;2023-12-07T05:31:07;103.20;6476.80
55331;DHT22;58851;42.984;20.336;2023-12-07T05:33:32;103.00;6476.80
55331;DHT22;58851;42.984;20.336;2023-12-07T05:35:58;103.00;204.80
55331;DHT22;58851;42.984;20.336;2023-12-07T05:38:25;103.10;6476.80
55331;DHT22;58851;42.984;20.336;2023-12-07T05:40:51;103.10;128.00
55331;DHT22;58851;42.984;20.336;2023-12-07T05:43:17;103.10;6476.80
55331;DHT22;58851;42.984;20.336;2023-12-07T05:45:42;103.00;6476.80
55331;DHT22;58851;42.984;20.336;2023-12-07T05:48:08;103.00;6476.80
55331;DHT22;58851;42.984;20.336;2023-12-07T05:50:34;103.00;6476.80
55331;DHT22;58851;42.984;20.336;2023-12-07T05:52:59;103.10;6476.80
55331;DHT22;58851;42.984;20.336;2023-12-07T05:55:25;103.10;6476.80
55331;DHT22;58851;42.984;20.336;2023-12-07T05:57:50;103.10;6476.80
55331;DHT22;58851;42.984;20.336;2023-12-07T06:00:17;103.00;6476.80
55331;DHT22;58851;42.984;20.336;2023-12-07T06:02:44;103.00;6476.80
55331;DHT22;58851;42.984;20.336;2023-12-07T06:05:10;103.00;6476.80
55331;DHT22;58851;42.984;20.336;2023-12-07T06:07:36;102.90;6502.40
55331;DHT22;58851;42.984;20.336;2023-12-07T06:10:02;102.80;6476.80
55331;DHT22;58851;42.984;20.336;2023-12-07T06:12:27;102.80;6476.80
55331;DHT22;58851;42.984;20.336;2023-12-07T06:14:53;102.70;6476.80
55331;DHT22;58851;42.984;20.336;2023-12-07T06:17:19;102.60;6476.80
55331;DHT22;58851;42.984;20.336;2023-12-07T06:19:45;102.70;204.80
55331;DHT22;58851;42.984;20.336;2023-12-07T06:22:10;102.80;128.00
55331;DHT22;58851;42.984;20.336;2023-12-07T06:24:36;102.80;6476.80
55331;DHT22;58851;42.984;20.336;2023-12-07T06:27:02;102.90;128.00
55331;DHT22;58851;42.984;20.336;2023-12-07T06:29:28;103.00;6476.80
55331;DHT22;58851;42.984;20.336;2023-12-07T06:31:54;103.00;6476.80
55331;DHT22;58851;42.984;20.336;2023-12-07T06:34:20;103.00;6476.80
55331;DHT22;58851;42.984;20.336;2023-12-07T06:36:46;103.10;6476.80
55331;DHT22;58851;42.984;20.336;2023-12-07T06:39:13;103.00;6476.80
55331;DHT22;58851;42.984;20.336;2023-12-07T06:41:39;103.10;6476.80
55331;DHT22;58851;42.984;20.336;2023-12-07T06:44:06;103.00;6476.80
55331;DHT22;58851;42.984;20.336;2023-12-07T06:46:31;103.10;6476.80
55331;DHT22;58851;42.984;20.336;2023-12-07T06:48:57;103.00;6476.80
55331;DHT22;58851;42.984;20.336;2023-12-07T06:51:23;103.00;6476.80
55331;DHT22;58851;42.984;20.336;2023-12-07T06:53:48;103.10;6476.80
55331;DHT22;58851;42.984;20.336;2023-12-07T06:56:14;103.10;6476.80
55331;DHT22;58851;42.984;20.336;2023-12-07T06:58:40;103.20;6476.80
55331;DHT22;58851;42.984;20.336;2023-12-07T07:01:06;103.20;6476.80
55331;DHT22;58851;42.984;20.336;2023-12-07T07:03:31;103.20;6476.80
55331;DHT22;58851;42.984;20.336;2023-12-07T07:05:57;103.20;6476.80
55331;DHT22;58851;42.984;20.336;2023-12-07T07:08:24;103.30;6476.80
55331;DHT22;58851;42.984;20.336;2023-12-07T07:10:50;103.20;6476.80
55331;DHT22;58851;42.984;20.336;2023-12-07T07:13:15;103.30;6476.80
55331;DHT22;58851;42.984;20.336;2023-12-07T07:15:42;103.20;6476.80
55331;DHT22;58851;42.984;20.336;2023-12-07T07:18:11;103.20;6476.80
55331;DHT22;58851;42.984;20.336;2023-12-07T07:20:37;103.30;6476.80
55331;DHT22;58851;42.984;20.336;2023-12-07T07:23:03;128.00;6502.40
55331;DHT22;58851;42.984;20.336;2023-12-07T07:25:28;103.20;6476.80
55331;DHT22;58851;42.984;20.336;2023-12-07T07:27:54;103.20;6476.80
55331;DHT22;58851;42.984;20.336;2023-12-07T07:30:20;103.20;6476.80
55331;DHT22;58851;42.984;20.336;2023-12-07T07:32:46;103.20;6476.80
55331;DHT22;58851;42.984;20.336;2023-12-07T07:35:11;103.30;6476.80
55331;DHT22;58851;42.984;20.336;2023-12-07T07:37:40;128.00;6502.40
55331;DHT22;58851;42.984;20.336;2023-12-07T07:40:07;128.10;6502.40
55331;DHT22;58851;42.984;20.336;2023-12-07T07:42:33;128.20;6502.40
55331;DHT22;58851;42.984;20.336;2023-12-07T07:44:58;128.20;6502.40
55331;DHT22;58851;42.984;20.336;2023-12-07T07:47:24;128.30;6502.40
55331;DHT22;58851;42.984;20.336;2023-12-07T07:49:49;128.30;6502.40
55331;DHT22;58851;42.984;20.336;2023-12-07T07:52:15;128.30;6502.40
55331;DHT22;58851;42.984;20.336;2023-12-07T07:54:41;128.40;6502.40
55331;DHT22;58851;42.984;20.336;2023-12-07T07:57:07;128.30;6502.40
55331;DHT22;58851;42.984;20.336;2023-12-07T07:59:32;128.40;6502.40
55331;DHT22;58851;42.984;20.336;2023-12-07T08:01:58;128.50;6502.40
55331;DHT22;58851;42.984;20.336;2023-12-07T08:04:24;128.40;6502.40
55331;DHT22;58851;42.984;20.336;2023-12-07T08:06:49;128.40;6502.40
55331;DHT22;58851;42.984;20.336;2023-12-07T08:09:16;128.40;6502.40
55331;DHT22;58851;42.984;20.336;2023-12-07T08:11:42;128.40;6502.40
55331;DHT22;58851;42.984;20.336;2023-12-07T08:14:08;128.30;6502.40
55331;DHT22;58851;42.984;20.336;2023-12-07T08:16:34;128.20;6502.40
55331;DHT22;58851;42.984;20.336;2023-12-07T08:18:59;128.20;6502.40
55331;DHT22;58851;42.984;20.336;2023-12-07T08:21:25;128.00;6502.40
55331;DHT22;58851;42.984;20.336;2023-12-07T08:23:51;103.30;6476.80
55331;DHT22;58851;42.984;20.336;2023-12-07T08:26:17;103.10;6476.80
55331;DHT22;58851;42.984;20.336;2023-12-07T08:28:43;103.20;6476.80
55331;DHT22;58851;42.984;20.336;2023-12-07T08:31:09;103.30;6476.80
55331;DHT22;58851;42.984;20.336;2023-12-07T08:33:34;128.00;6502.40
55331;DHT22;58851;42.984;20.336;2023-12-07T08:36:01;128.00;6502.40
55331;DHT22;58851;42.984;20.336;2023-12-07T08:38:26;128.10;6502.40
55331;DHT22;58851;42.984;20.336;2023-12-07T08:40:52;128.30;6502.40
55331;DHT22;58851;42.984;20.336;2023-12-07T08:43:21;128.30;6502.40
55331;DHT22;58851;42.984;20.336;2023-12-07T08:45:48;128.60;6502.40
55331;DHT22;58851;42.984;20.336;2023-12-07T08:48:14;128.50;6502.40
55331;DHT22;58851;42.984;20.336;2023-12-07T08:50:39;128.70;6502.40
55331;DHT22;58851;42.984;20.336;2023-12-07T08:53:06;128.70;6502.40
55331;DHT22;58851;42.984;20.336;2023-12-07T08:55:31;128.60;6502.40
55331;DHT22;58851;42.984;20.336;2023-12-07T08:57:57;128.60;6502.40
55331;DHT22;58851;42.984;20.336;2023-12-07T09:00:25;128.40;6502.40
55331;DHT22;58851;42.984;20.336;2023-12-07T09:02:51;128.20;6502.40
55331;DHT22;58851;42.984;20.336;2023-12-07T09:05:17;128.20;6502.40
55331;DHT22;58851;42.984;20.336;2023-12-07T09:07:43;128.40;6502.40
55331;DHT22;58851;42.984;20.336;2023-12-07T09:10:09;128.50;6502.40
55331;DHT22;58851;42.984;20.336;2023-12-07T09:12:34;128.20;6502.40
55331;DHT22;58851;42.984;20.336;2023-12-07T09:15:04;103.30;6476.80
55331;DHT22;58851;42.984;20.336;2023-12-07T09:17:29;103.20;6476.80
55331;DHT22;58851;42.984;20.336;2023-12-07T09:19:55;128.00;6502.40
55331;DHT22;58851;42.984;20.336;2023-12-07T09:22:21;103.20;6476.80
55331;DHT22;58851;42.984;20.336;2023-12-07T09:24:46;128.00;6502.40
55331;DHT22;58851;42.984;20.336;2023-12-07T09:27:15;103.30;6476.80
55331;DHT22;58851;42.984;20.336;2023-12-07T09:29:41;128.00;6502.40
55331;DHT22;58851;42.984;20.336;2023-12-07T09:32:07;128.10;6502.40
55331;DHT22;58851;42.984;20.336;2023-12-07T09:34:32;128.30;6502.40
55331;DHT22;58851;42.984;20.336;2023-12-07T09:37:10;128.20;6502.40
55331;DHT22;58851;42.984;20.336;2023-12-07T09:39:36;128.00;6502.40
55331;DHT22;58851;42.984;20.336;2023-12-07T09:42:02;128.00;6502.40
55331;DHT22;58851;42.984;20.336;2023-12-07T09:44:27;103.10;6476.80
55331;DHT22;58851;42.984;20.336;2023-12-07T09:46:53;103.00;6476.80
55331;DHT22;58851;42.984;20.336;2023-12-07T09:49:20;103.00;6476.80
55331;DHT22;58851;42.984;20.336;2023-12-07T09:51:46;103.30;6476.80
55331;DHT22;58851;42.984;20.336;2023-12-07T09:54:12;103.20;6476.80
55331;DHT22;58851;42.984;20.336;2023-12-07T09:56:37;103.10;6476.80
55331;DHT22;58851;42.984;20.336;2023-12-07T09:59:03;103.30;6476.80
55331;DHT22;58851;42.984;20.336;2023-12-07T10:01:29;128.00;6502.40
55331;DHT22;58851;42.984;20.336;2023-12-07T10:06:43;128.20;6502.40
55331;DHT22;58851;42.984;20.336;2023-12-07T10:09:13;128.30;6502.40
55331;DHT22;58851;42.984;20.336;2023-12-07T10:11:39;128.50;6502.40
55331;DHT22;58851;42.984;20.336;2023-12-07T10:14:05;128.40;6502.40
55331;DHT22;58851;42.984;20.336;2023-12-07T10:16:31;128.50;6502.40
55331;DHT22;58851;42.984;20.336;2023-12-07T10:19:16;128.50;6502.40
55331;DHT22;58851;42.984;20.336;2023-12-07T10:21:44;128.70;6502.40
55331;DHT22;58851;42.984;20.336;2023-12-07T10:24:10;128.70;6502.40
55331;DHT22;58851;42.984;20.336;2023-12-07T10:26:37;128.80;6502.40
55331;DHT22;58851;42.984;20.336;2023-12-07T10:29:04;128.90;6502.40
55331;DHT22;58851;42.984;20.336;2023-12-07T10:31:31;153.70;6502.40
55331;DHT22;58851;42.984;20.336;2023-12-07T10:33:58;153.70;6502.40
55331;DHT22;58851;42.984;20.336;2023-12-07T10:36:24;153.80;6502.40
55331;DHT22;58851;42.984;20.336;2023-12-07T10:38:49;153.70;6502.40
55331;DHT22;58851;42.984;20.336;2023-12-07T10:41:18;153.60;6502.40
55331;DHT22;58851;42.984;20.336;2023-12-07T10:43:44;128.90;6502.40
55331;DHT22;58851;42.984;20.336;2023-12-07T10:46:13;128.80;6502.40
55331;DHT22;58851;42.984;20.336;2023-12-07T10:48:40;128.70;6502.40
55331;DHT22;58851;42.984;20.336;2023-12-07T10:51:08;128.60;6502.40
55331;DHT22;58851;42.984;20.336;2023-12-07T10:53:37;128.50;6502.40
55331;DHT22;58851;42.984;20.336;2023-12-07T10:56:07;128.40;6502.40
55331;DHT22;58851;42.984;20.336;2023-12-07T10:58:33;128.30;6502.40
55331;DHT22;58851;42.984;20.336;2023-12-07T11:01:01;128.20;6502.40
55331;DHT22;58851;42.984;20.336;2023-12-07T11:03:27;128.40;6502.40
55331;DHT22;58851;42.984;20.336;2023-12-07T11:05:55;128.30;6502.40
55331;DHT22;58851;42.984;20.336;2023-12-07T11:11:00;128.70;6502.40
55331;DHT22;58851;42.984;20.336;2023-12-07T11:13:29;128.60;6502.40
55331;DHT22;58851;42.984;20.336;2023-12-07T11:15:55;128.40;6502.40
55331;DHT22;58851;42.984;20.336;2023-12-07T11:18:21;128.00;6502.40
55331;DHT22;58851;42.984;20.336;2023-12-07T11:20:47;128.00;6502.40
55331;DHT22;58851;42.984;20.336;2023-12-07T11:23:16;103.30;6476.80
55331;DHT22;58851;42.984;20.336;2023-12-07T11:25:46;128.00;6502.40
55331;DHT22;58851;42.984;20.336;2023-12-07T11:28:12;128.00;6502.40
55331;DHT22;58851;42.984;20.336;2023-12-07T11:30:38;103.20;6476.80
55331;DHT22;58851;42.984;20.336;2023-12-07T11:33:07;128.00;6502.40
55331;DHT22;58851;42.984;20.336;2023-12-07T11:35:32;103.30;6476.80
55331;DHT22;58851;42.984;20.336;2023-12-07T11:40:40;103.00;6476.80
55331;DHT22;58851;42.984;20.336;2023-12-07T11:43:06;103.00;6476.80
55331;DHT22;58851;42.984;20.336;2023-12-07T11:45:36;102.90;6476.80
55331;DHT22;58851;42.984;20.336;2023-12-07T11:48:08;103.00;6476.80
55331;DHT22;58851;42.984;20.336;2023-12-07T11:50:34;103.00;6476.80
55331;DHT22;58851;42.984;20.336;2023-12-07T11:53:00;102.90;6476.80
55331;DHT22;58851;42.984;20.336;2023-12-07T11:55:26;102.80;6476.80
55331;DHT22;58851;42.984;20.336;2023-12-07T11:57:51;102.70;6476.80
55331;DHT22;58851;42.984;20.336;2023-12-07T12:00:17;102.50;6476.80
55331;DHT22;58851;42.984;20.336;2023-12-07T12:02:43;102.50;6476.80
55331;DHT22;58851;42.984;20.336;2023-12-07T12:05:13;102.40;6476.80
55331;DHT22;58851;42.984;20.336;2023-12-07T12:07:38;102.50;6476.80
55331;DHT22;58851;42.984;20.336;2023-12-07T12:10:04;102.70;6476.80
55331;DHT22;58851;42.984;20.336;2023-12-07T12:12:32;102.60;6476.80
55331;DHT22;58851;42.984;20.336;2023-12-07T12:14:58;102.50;6476.80
55331;DHT22;58851;42.984;20.336;2023-12-07T12:17:24;102.60;6476.80
55331;DHT22;58851;42.984;20.336;2023-12-07T12:19:50;102.70;6476.80
55331;DHT22;58851;42.984;20.336;2023-12-07T12:22:20;102.80;6476.80
55331;DHT22;58851;42.984;20.336;2023-12-07T12:24:49;102.80;6476.80
55331;DHT22;58851;42.984;20.336;2023-12-07T12:27:14;102.80;6476.80
55331;DHT22;58851;42.984;20.336;2023-12-07T12:29:41;102.70;6476.80
55331;DHT22;58851;42.984;20.336;2023-12-07T12:32:08;102.70;6476.80
55331;DHT22;58851;42.984;20.336;2023-12-07T12:34:34;102.60;6476.80
55331;DHT22;58851;42.984;20.336;2023-12-07T12:36:59;102.60;6476.80
55331;DHT22;58851;42.984;20.336;2023-12-07T12:39:28;102.60;6476.80
55331;DHT22;58851;42.984;20.336;2023-12-07T12:41:57;102.60;6476.80
55331;DHT22;58851;42.984;20.336;2023-12-07T12:44:24;102.80;6476.80
55331;DHT22;58851;42.984;20.336;2023-12-07T12:46:50;102.80;6476.80
55331;DHT22;58851;42.984;20.336;2023-12-07T12:49:16;102.80;6476.80
55331;DHT22;58851;42.984;20.336;2023-12-07T12:51:42;103.00;6476.80
55331;DHT22;58851;42.984;20.336;2023-12-07T12:54:09;103.20;6476.80
55331;DHT22;58851;42.984;20.336;2023-12-07T12:56:36;103.20;6476.80
55331;DHT22;58851;42.984;20.336;2023-12-07T12:59:02;128.00;6502.40
55331;DHT22;58851;42.984;20.336;2023-12-07T13:01:28;103.30;6476.80
55331;DHT22;58851;42.984;20.336;2023-12-07T13:03:53;128.00;6502.40
55331;DHT22;58851;42.984;20.336;2023-12-07T13:06:19;103.20;6476.80
55331;DHT22;58851;42.984;20.336;2023-12-07T13:08:45;103.10;6476.80
55331;DHT22;58851;42.984;20.336;2023-12-07T13:11:17;102.90;6476.80
55331;DHT22;58851;42.984;20.336;2023-12-07T13:13:43;102.80;6476.80
55331;DHT22;58851;42.984;20.336;2023-12-07T13:16:09;102.90;6476.80
55331;DHT22;58851;42.984;20.336;2023-12-07T13:18:37;102.70;6476.80
55331;DHT22;58851;42.984;20.336;2023-12-07T13:21:02;102.60;6476.80
55331;DHT22;58851;42.984;20.336;2023-12-07T13:23:28;102.60;6476.80
55331;DHT22;58851;42.984;20.336;2023-12-07T13:25:54;102.80;6476.80
55331;DHT22;58851;42.984;20.336;2023-12-07T13:28:19;102.60;6476.80
55331;DHT22;58851;42.984;20.336;2023-12-07T13:30:45;102.50;6476.80
55331;DHT22;58851;42.984;20.336;2023-12-07T13:33:11;102.50;6476.80
55331;DHT22;58851;42.984;20.336;2023-12-07T13:35:36;102.40;6476.80
55331;DHT22;58851;42.984;20.336;2023-12-07T13:38:03;102.40;6476.80
55331;DHT22;58851;42.984;20.336;2023-12-07T13:40:28;102.40;6476.80
55331;DHT22;58851;42.984;20.336;2023-12-07T13:42:54;102.40;6476.80
55331;DHT22;58851;42.984;20.336;2023-12-07T13:45:20;102.40;6476.80
55331;DHT22;58851;42.984;20.336;2023-12-07T13:47:45;102.40;6476.80
55331;DHT22;58851;42.984;20.336;2023-12-07T13:50:11;102.40;6476.80
55331;DHT22;58851;42.984;20.336;2023-12-07T13:52:38;102.40;6476.80
55331;DHT22;58851;42.984;20.336;2023-12-07T13:55:03;102.40;6476.80
55331;DHT22;58851;42.984;20.336;2023-12-07T13:57:30;102.40;6476.80
55331;DHT22;58851;42.984;20.336;2023-12-07T13:59:55;102.40;6476.80
55331;DHT22;58851;42.984;20.336;2023-12-07T14:02:21;102.50;6476.80
55331;DHT22;58851;42.984;20.336;2023-12-07T14:04:47;102.50;6476.80
55331;DHT22;58851;42.984;20.336;2023-12-07T14:07:16;102.40;6476.80
55331;DHT22;58851;42.984;20.336;2023-12-07T14:09:42;77.70;6476.80
55331;DHT22;58851;42.984;20.336;2023-12-07T14:12:09;77.70;6476.80
55331;DHT22;58851;42.984;20.336;2023-12-07T14:14:36;102.40;6476.80
55331;DHT22;58851;42.984;20.336;2023-12-07T14:17:02;102.50;6476.80
55331;DHT22;58851;42.984;20.336;2023-12-07T14:19:28;102.60;6476.80
55331;DHT22;58851;42.984;20.336;2023-12-07T14:21:54;102.60;6476.80
55331;DHT22;58851;42.984;20.336;2023-12-07T14:24:21;102.70;6476.80
55331;DHT22;58851;42.984;20.336;2023-12-07T14:26:47;102.70;6476.80
55331;DHT22;58851;42.984;20.336;2023-12-07T14:29:14;102.70;6476.80
55331;DHT22;58851;42.984;20.336;2023-12-07T14:31:41;102.80;6476.80
55331;DHT22;58851;42.984;20.336;2023-12-07T14:34:06;102.70;6476.80
55331;DHT22;58851;42.984;20.336;2023-12-07T14:36:32;102.60;6476.80
55331;DHT22;58851;42.984;20.336;2023-12-07T14:38:58;102.50;6476.80
55331;DHT22;58851;42.984;20.336;2023-12-07T14:41:23;102.60;6476.80